createdAt,value
2023-08-26T00:00:13.179Z,15.15
2023-08-26T00:02:40.257Z,14.90
2023-08-26T00:05:07.899Z,14.90
2023-08-26T00:07:35.253Z,14.52
2023-08-26T00:10:02.505Z,14.95
2023-08-26T00:12:31.164Z,14.88
2023-08-26T00:15:04.593Z,14.89
2023-08-26T00:17:34.032Z,15.01
2023-08-26T00:20:02.144Z,14.74
2023-08-26T00:22:31.197Z,14.93
2023-08-26T00:24:58.478Z,14.85
2023-08-26T00:27:25.606Z,14.74
2023-08-26T00:29:52.789Z,14.49
2023-08-26T00:32:22.329Z,14.79
2023-08-26T00:34:49.546Z,14.79
2023-08-26T00:37:16.917Z,14.61
2023-08-26T00:39:44.137Z,14.88
2023-08-26T00:42:11.325Z,14.75
2023-08-26T00:44:38.555Z,14.70
2023-08-26T00:47:06.022Z,14.86
2023-08-26T00:49:35.832Z,14.73
2023-08-26T00:52:03.252Z,14.75
2023-08-26T00:54:33.705Z,14.53
2023-08-26T00:57:01.064Z,14.61
2023-08-26T00:59:28.348Z,14.51
2023-08-26T01:01:56.425Z,14.62
2023-08-26T01:04:23.715Z,14.77
2023-08-26T01:06:50.879Z,14.45
2023-08-26T01:09:20.329Z,14.52
2023-08-26T01:11:58.080Z,14.67
2023-08-26T01:14:35.357Z,14.93
2023-08-26T01:17:05.199Z,14.93
2023-08-26T01:19:35.435Z,14.62
2023-08-26T01:22:06.671Z,14.82
2023-08-26T01:24:35.539Z,14.79
2023-08-26T01:27:03.830Z,14.82
2023-08-26T01:29:31.171Z,14.33
2023-08-26T01:32:36.802Z,14.76
2023-08-26T01:35:08.697Z,14.25
2023-08-26T01:37:40.055Z,14.67
2023-08-26T01:40:11.090Z,14.48
2023-08-26T01:42:41.723Z,14.27
2023-08-26T01:45:09.899Z,14.52
2023-08-26T01:47:37.289Z,14.27
2023-08-26T01:50:04.940Z,14.34
2023-08-26T01:52:32.146Z,14.40
2023-08-26T01:54:59.494Z,14.38
2023-08-26T01:57:26.848Z,14.54
2023-08-26T01:59:54.018Z,14.31
2023-08-26T02:02:22.341Z,14.42
2023-08-26T02:04:49.467Z,14.52
2023-08-26T02:07:18.420Z,14.27
2023-08-26T02:09:45.932Z,14.33
2023-08-26T02:12:13.035Z,14.18
2023-08-26T02:14:40.272Z,14.49
2023-08-26T02:17:27.390Z,14.35
2023-08-26T02:19:55.948Z,14.31
2023-08-26T02:22:23.207Z,14.52
2023-08-26T02:24:50.385Z,14.50
2023-08-26T02:27:19.673Z,14.44
2023-08-26T02:29:46.896Z,14.33
2023-08-26T02:32:14.437Z,14.28
2023-08-26T02:34:41.748Z,14.51
2023-08-26T02:37:08.965Z,14.54
2023-08-26T02:39:37.069Z,14.44
2023-08-26T02:42:04.605Z,14.48
2023-08-26T02:44:32.067Z,14.53
2023-08-26T02:49:41.344Z,14.65
2023-08-26T02:52:09.205Z,14.76
2023-08-26T02:54:36.961Z,14.99
2023-08-26T02:57:04.242Z,14.72
2023-08-26T02:59:31.463Z,14.74
2023-08-26T03:02:00.650Z,14.68
2023-08-26T03:04:27.923Z,14.85
2023-08-26T03:06:55.276Z,14.79
2023-08-26T03:09:22.960Z,14.46
2023-08-26T03:11:50.427Z,14.55
2023-08-26T03:14:17.660Z,14.53
2023-08-26T03:16:45.511Z,14.83
2023-08-26T03:19:14.267Z,14.67
2023-08-26T03:21:44.396Z,14.43
2023-08-26T03:24:14.347Z,14.50
2023-08-26T03:26:43.374Z,14.48
2023-08-26T03:29:15.904Z,14.33
2023-08-26T03:31:44.715Z,13.95
2023-08-26T03:34:15.315Z,14.21
2023-08-26T03:36:45.638Z,13.92
2023-08-26T03:39:15.464Z,13.89
2023-08-26T03:41:43.853Z,13.97
2023-08-26T03:44:14.748Z,14.05
2023-08-26T03:46:41.943Z,14.15
2023-08-26T03:49:15.314Z,14.17
2023-08-26T03:51:42.998Z,14.33
2023-08-26T03:54:10.791Z,14.53
2023-08-26T03:56:38.098Z,14.36
2023-08-26T03:59:06.159Z,14.30
2023-08-26T04:01:44.140Z,14.22
2023-08-26T04:04:11.875Z,14.51
2023-08-26T04:07:09.756Z,14.65
2023-08-26T04:09:37.257Z,14.56
2023-08-26T04:16:25.718Z,14.89
2023-08-26T04:18:53.879Z,14.66
2023-08-26T04:21:23.802Z,15.07
2023-08-26T04:23:53.764Z,14.96
2023-08-26T04:26:21.093Z,15.02
2023-08-26T04:28:50.342Z,14.82
2023-08-26T04:31:17.897Z,15.30
2023-08-26T04:33:45.581Z,15.69
2023-08-26T04:36:13.370Z,15.62
2023-08-26T04:38:40.541Z,15.77
2023-08-26T04:50:38.783Z,16.13
2023-08-26T04:53:06.046Z,15.88
2023-08-26T04:55:59.828Z,16.34
2023-08-26T05:00:50.875Z,16.54
2023-08-26T05:03:53.157Z,16.69
2023-08-26T05:07:20.013Z,16.91
2023-08-26T05:10:14.396Z,17.11
2023-08-26T05:13:57.884Z,17.28
2023-08-26T05:16:26.292Z,17.09
2023-08-26T05:19:25.261Z,17.34
2023-08-26T05:23:09.000Z,17.38
2023-08-26T05:25:37.019Z,17.09
2023-08-26T05:28:08.114Z,17.03
2023-08-26T05:34:42.717Z,17.17
2023-08-26T05:37:10.880Z,17.10
2023-08-26T05:45:04.230Z,17.26
2023-08-26T05:48:52.053Z,17.27
2023-08-26T05:55:52.423Z,17.20
2023-08-26T05:58:19.769Z,17.10
2023-08-26T06:00:48.434Z,16.86
2023-08-26T06:03:21.006Z,16.79
2023-08-26T06:05:48.274Z,16.92
2023-08-26T06:09:34.905Z,17.11
2023-08-26T06:17:31.910Z,16.78
2023-08-26T06:24:43.426Z,16.87
2023-08-26T06:53:13.183Z,17.83
2023-08-26T07:03:23.259Z,17.64
2023-08-26T07:21:54.508Z,18.24
2023-08-26T07:24:22.292Z,18.24
2023-08-26T07:33:55.094Z,17.94
2023-08-26T07:40:34.782Z,18.06
2023-08-26T07:47:17.484Z,18.77
2023-08-26T07:50:12.633Z,18.63
2023-08-26T07:56:25.739Z,18.55
2023-08-26T11:11:41.681Z,16.62
2023-08-26T13:51:43.518Z,16.98
2023-08-26T15:19:14.757Z,16.46
2023-08-26T15:24:52.939Z,16.50
2023-08-26T15:27:29.686Z,16.10
2023-08-26T15:29:58.029Z,16.48
2023-08-26T15:32:25.457Z,16.16
2023-08-26T15:34:56.976Z,16.29
2023-08-26T15:40:07.439Z,16.43
2023-08-26T15:42:40.514Z,16.21
2023-08-26T15:45:18.448Z,16.33
2023-08-26T15:47:49.382Z,15.99
2023-08-26T15:58:47.697Z,15.89
2023-08-26T16:51:26.813Z,14.90
2023-08-26T17:20:56.839Z,14.87
2023-08-26T17:37:05.860Z,15.19
2023-08-26T17:39:42.108Z,14.63
2023-08-26T17:42:12.867Z,15.24
2023-08-26T18:04:10.951Z,14.72
2023-08-26T18:11:15.276Z,14.49
2023-08-26T18:13:45.921Z,14.68
2023-08-26T18:16:13.525Z,14.82
2023-08-26T18:18:40.859Z,15.10
2023-08-26T18:37:16.381Z,14.97
2023-08-26T18:39:44.151Z,14.64
2023-08-26T18:42:13.465Z,14.66
2023-08-26T18:46:41.900Z,15.02
2023-08-26T18:49:09.254Z,14.78
2023-08-26T18:51:36.444Z,14.62
2023-08-26T18:54:03.832Z,14.91
2023-08-26T18:56:31.296Z,14.49
2023-08-26T19:03:28.788Z,14.60
2023-08-26T19:05:56.225Z,14.74
2023-08-26T19:08:23.656Z,14.64
2023-08-26T19:15:34.352Z,14.29
2023-08-26T19:20:00.967Z,14.77
2023-08-26T19:22:28.497Z,14.68
2023-08-26T19:24:57.347Z,14.47
2023-08-26T19:32:35.677Z,14.76
2023-08-26T19:35:03.039Z,14.73
2023-08-26T19:37:30.313Z,14.50
2023-08-26T19:39:57.692Z,14.40
2023-08-26T19:42:25.417Z,14.57
2023-08-26T19:49:25.690Z,14.82
2023-08-26T19:59:12.243Z,14.28
2023-08-26T20:01:39.737Z,14.61
2023-08-26T20:13:31.574Z,14.83
2023-08-26T20:20:31.694Z,14.63
2023-08-26T20:22:59.115Z,14.45
2023-08-26T20:25:34.960Z,14.27
2023-08-26T20:29:55.992Z,14.85
2023-08-26T20:32:23.599Z,14.40
2023-08-26T20:34:51.307Z,14.28
2023-08-26T20:59:33.401Z,14.14
2023-08-26T21:02:01.892Z,14.23
2023-08-26T21:12:05.885Z,14.41
2023-08-26T21:15:51.201Z,14.41
2023-08-26T21:24:38.372Z,14.30
2023-08-26T21:30:38.635Z,13.82
2023-08-26T22:02:03.157Z,14.77
2023-08-26T22:37:50.101Z,14.79
2023-08-26T22:40:17.803Z,14.48
2023-08-26T22:47:08.024Z,14.73
2023-08-26T22:49:35.527Z,14.59
2023-08-26T22:52:02.876Z,14.05
2023-08-26T22:54:30.130Z,14.52
2023-08-26T23:08:36.206Z,14.21
2023-08-26T23:11:06.526Z,13.58
2023-08-26T23:13:33.777Z,13.68
2023-08-26T23:16:01.299Z,13.73
2023-08-26T23:22:54.460Z,14.22
2023-08-26T23:25:21.889Z,13.76
2023-08-26T23:55:56.076Z,13.84
2023-08-26T23:58:23.442Z,14.00
